KLRJ

Le Mars Municipal Airport

Le Mars, Iowa, USA
METAR KLRJ 131135Z AUTO 00000KT 8SM CLR M08/M08 A2987 RMK AO2
Observed Flight Rules
Dec-13 @ 11:35 UTC (16 minutes ago) Visual Flight Rules
Visibility Clouds
8 miles
  • Clear skies
Temperatures Readings
Current -8°C / 18°F
Dewpoint -8°C / 18°F
Humidity 100%
Altimeter 29.87" Hg
Pressure 1012 hPa
Elevation 365
METAR KLRJ 131135Z AUTO 00000KT 8SM CLR M08/M08 A2987 RMK AO2
Observed Flight Rules
Dec-13 @ 11:35 UTC
(16 minutes ago)
VFR
Clouds
  • Clear skies
Temperature Dewpoint
-8°C / 18°F -8°C / 18°F
Humidity Altimeter Pressure
100% 29.87" Hg 1012 hPa